sensor_id;sensor_type;location;lat;lon;timestamp;P1;durP1;ratioP1;P2;durP2;ratioP2
65597;SDS011;52267;51.984;20.956;2023-05-07T00:00:04;6.60;;;3.50;;
65597;SDS011;52267;51.984;20.956;2023-05-07T00:02:55;5.50;;;3.20;;
65597;SDS011;52267;51.984;20.956;2023-05-07T00:05:22;7.30;;;3.70;;
65597;SDS011;52267;51.984;20.956;2023-05-07T00:07:49;6.30;;;3.40;;
65597;SDS011;52267;51.984;20.956;2023-05-07T00:10:16;5.40;;;3.00;;
65597;SDS011;52267;51.984;20.956;2023-05-07T00:12:48;7.50;;;4.50;;
65597;SDS011;52267;51.984;20.956;2023-05-07T00:15:15;5.70;;;3.10;;
65597;SDS011;52267;51.984;20.956;2023-05-07T00:17:42;6.10;;;3.40;;
65597;SDS011;52267;51.984;20.956;2023-05-07T00:20:09;5.90;;;3.50;;
65597;SDS011;52267;51.984;20.956;2023-05-07T00:22:36;5.40;;;3.30;;
65597;SDS011;52267;51.984;20.956;2023-05-07T00:25:04;6.80;;;3.10;;
65597;SDS011;52267;51.984;20.956;2023-05-07T00:27:32;4.90;;;2.80;;
65597;SDS011;52267;51.984;20.956;2023-05-07T00:29:59;5.40;;;2.80;;
65597;SDS011;52267;51.984;20.956;2023-05-07T00:32:26;6.40;;;3.30;;
65597;SDS011;52267;51.984;20.956;2023-05-07T00:34:53;6.70;;;3.40;;
65597;SDS011;52267;51.984;20.956;2023-05-07T00:37:20;7.60;;;4.10;;
65597;SDS011;52267;51.984;20.956;2023-05-07T00:39:47;7.40;;;3.70;;
65597;SDS011;52267;51.984;20.956;2023-05-07T00:42:14;5.50;;;3.20;;
65597;SDS011;52267;51.984;20.956;2023-05-07T00:44:42;8.80;;;5.10;;
65597;SDS011;52267;51.984;20.956;2023-05-07T00:47:10;4.90;;;3.10;;
65597;SDS011;52267;51.984;20.956;2023-05-07T00:49:44;7.40;;;3.40;;
65597;SDS011;52267;51.984;20.956;2023-05-07T00:52:14;5.40;;;3.90;;
65597;SDS011;52267;51.984;20.956;2023-05-07T00:54:43;5.10;;;3.00;;
65597;SDS011;52267;51.984;20.956;2023-05-07T00:57:10;6.00;;;3.30;;
65597;SDS011;52267;51.984;20.956;2023-05-07T00:59:38;5.20;;;3.40;;
65597;SDS011;52267;51.984;20.956;2023-05-07T01:02:06;6.60;;;3.40;;
65597;SDS011;52267;51.984;20.956;2023-05-07T01:04:34;5.70;;;3.10;;
65597;SDS011;52267;51.984;20.956;2023-05-07T01:07:02;5.50;;;2.80;;
65597;SDS011;52267;51.984;20.956;2023-05-07T01:09:29;5.70;;;3.40;;
65597;SDS011;52267;51.984;20.956;2023-05-07T01:11:57;6.50;;;3.40;;
65597;SDS011;52267;51.984;20.956;2023-05-07T01:14:25;6.60;;;3.00;;
65597;SDS011;52267;51.984;20.956;2023-05-07T01:16:53;6.00;;;3.00;;
65597;SDS011;52267;51.984;20.956;2023-05-07T01:19:20;6.10;;;4.10;;
65597;SDS011;52267;51.984;20.956;2023-05-07T01:21:48;6.30;;;4.20;;
65597;SDS011;52267;51.984;20.956;2023-05-07T01:24:16;6.00;;;3.80;;
65597;SDS011;52267;51.984;20.956;2023-05-07T01:26:43;5.30;;;3.30;;
65597;SDS011;52267;51.984;20.956;2023-05-07T01:29:11;5.80;;;3.30;;
65597;SDS011;52267;51.984;20.956;2023-05-07T01:31:39;5.80;;;3.40;;
65597;SDS011;52267;51.984;20.956;2023-05-07T01:34:08;5.90;;;3.50;;
65597;SDS011;52267;51.984;20.956;2023-05-07T01:36:38;5.90;;;3.30;;
65597;SDS011;52267;51.984;20.956;2023-05-07T01:39:06;6.30;;;3.10;;
65597;SDS011;52267;51.984;20.956;2023-05-07T01:41:35;6.50;;;4.00;;
65597;SDS011;52267;51.984;20.956;2023-05-07T01:44:03;5.80;;;3.40;;
65597;SDS011;52267;51.984;20.956;2023-05-07T01:46:31;5.00;;;3.10;;
65597;SDS011;52267;51.984;20.956;2023-05-07T01:48:59;5.10;;;3.30;;
65597;SDS011;52267;51.984;20.956;2023-05-07T01:51:26;5.90;;;3.20;;
65597;SDS011;52267;51.984;20.956;2023-05-07T01:53:54;5.20;;;3.20;;
65597;SDS011;52267;51.984;20.956;2023-05-07T01:56:21;7.40;;;3.50;;
65597;SDS011;52267;51.984;20.956;2023-05-07T01:58:49;5.90;;;2.90;;
65597;SDS011;52267;51.984;20.956;2023-05-07T02:01:17;4.40;;;2.40;;
65597;SDS011;52267;51.984;20.956;2023-05-07T02:03:44;6.10;;;2.90;;
65597;SDS011;52267;51.984;20.956;2023-05-07T02:06:11;5.80;;;3.00;;
65597;SDS011;52267;51.984;20.956;2023-05-07T02:08:38;7.90;;;3.40;;
65597;SDS011;52267;51.984;20.956;2023-05-07T02:11:06;5.90;;;3.10;;
65597;SDS011;52267;51.984;20.956;2023-05-07T02:13:33;7.50;;;3.50;;
65597;SDS011;52267;51.984;20.956;2023-05-07T02:16:02;4.80;;;2.80;;
65597;SDS011;52267;51.984;20.956;2023-05-07T02:18:29;4.80;;;2.70;;
65597;SDS011;52267;51.984;20.956;2023-05-07T02:20:57;5.00;;;2.40;;
65597;SDS011;52267;51.984;20.956;2023-05-07T02:23:24;6.60;;;3.20;;
65597;SDS011;52267;51.984;20.956;2023-05-07T02:25:51;8.30;;;3.70;;
65597;SDS011;52267;51.984;20.956;2023-05-07T02:28:18;6.70;;;3.40;;
65597;SDS011;52267;51.984;20.956;2023-05-07T02:30:45;5.50;;;3.00;;
65597;SDS011;52267;51.984;20.956;2023-05-07T02:33:12;6.90;;;3.60;;
65597;SDS011;52267;51.984;20.956;2023-05-07T02:35:40;5.80;;;3.30;;
65597;SDS011;52267;51.984;20.956;2023-05-07T02:38:07;5.50;;;3.30;;
65597;SDS011;52267;51.984;20.956;2023-05-07T02:40:37;7.00;;;4.10;;
65597;SDS011;52267;51.984;20.956;2023-05-07T02:43:08;6.30;;;3.80;;
65597;SDS011;52267;51.984;20.956;2023-05-07T02:45:35;4.90;;;3.00;;
65597;SDS011;52267;51.984;20.956;2023-05-07T02:48:04;5.10;;;3.00;;
65597;SDS011;52267;51.984;20.956;2023-05-07T02:50:32;5.60;;;3.30;;
65597;SDS011;52267;51.984;20.956;2023-05-07T02:52:59;5.40;;;3.20;;
65597;SDS011;52267;51.984;20.956;2023-05-07T02:55:26;6.90;;;3.50;;
65597;SDS011;52267;51.984;20.956;2023-05-07T02:57:53;5.40;;;3.30;;
65597;SDS011;52267;51.984;20.956;2023-05-07T03:00:21;9.10;;;3.40;;
65597;SDS011;52267;51.984;20.956;2023-05-07T03:02:48;7.30;;;3.10;;
65597;SDS011;52267;51.984;20.956;2023-05-07T03:05:15;5.70;;;2.60;;
65597;SDS011;52267;51.984;20.956;2023-05-07T03:07:42;5.70;;;2.70;;
65597;SDS011;52267;51.984;20.956;2023-05-07T03:10:11;4.60;;;2.40;;
65597;SDS011;52267;51.984;20.956;2023-05-07T03:12:39;5.00;;;2.90;;
65597;SDS011;52267;51.984;20.956;2023-05-07T03:15:06;4.30;;;2.80;;
65597;SDS011;52267;51.984;20.956;2023-05-07T03:17:34;4.90;;;3.00;;
65597;SDS011;52267;51.984;20.956;2023-05-07T03:20:01;4.70;;;3.50;;
65597;SDS011;52267;51.984;20.956;2023-05-07T03:22:29;5.10;;;2.70;;
65597;SDS011;52267;51.984;20.956;2023-05-07T03:24:55;6.50;;;3.00;;
65597;SDS011;52267;51.984;20.956;2023-05-07T03:27:22;6.00;;;3.30;;
65597;SDS011;52267;51.984;20.956;2023-05-07T03:29:49;4.90;;;2.80;;
65597;SDS011;52267;51.984;20.956;2023-05-07T03:32:16;4.30;;;2.50;;
65597;SDS011;52267;51.984;20.956;2023-05-07T03:34:43;4.40;;;2.70;;
65597;SDS011;52267;51.984;20.956;2023-05-07T03:37:11;4.40;;;2.70;;
65597;SDS011;52267;51.984;20.956;2023-05-07T03:39:38;4.60;;;2.60;;
65597;SDS011;52267;51.984;20.956;2023-05-07T03:42:05;4.30;;;2.90;;
65597;SDS011;52267;51.984;20.956;2023-05-07T03:44:32;4.30;;;2.80;;
65597;SDS011;52267;51.984;20.956;2023-05-07T03:46:59;6.90;;;3.30;;
65597;SDS011;52267;51.984;20.956;2023-05-07T03:49:26;6.40;;;3.60;;
65597;SDS011;52267;51.984;20.956;2023-05-07T03:51:53;3.90;;;2.30;;
65597;SDS011;52267;51.984;20.956;2023-05-07T03:54:20;5.50;;;2.30;;
65597;SDS011;52267;51.984;20.956;2023-05-07T03:56:47;4.40;;;2.50;;
65597;SDS011;52267;51.984;20.956;2023-05-07T03:59:14;4.40;;;2.50;;
65597;SDS011;52267;51.984;20.956;2023-05-07T04:01:41;4.50;;;2.50;;
65597;SDS011;52267;51.984;20.956;2023-05-07T04:04:08;4.40;;;2.70;;
65597;SDS011;52267;51.984;20.956;2023-05-07T04:06:35;3.90;;;2.30;;
65597;SDS011;52267;51.984;20.956;2023-05-07T04:09:02;4.90;;;2.30;;
65597;SDS011;52267;51.984;20.956;2023-05-07T04:11:29;5.10;;;2.40;;
65597;SDS011;52267;51.984;20.956;2023-05-07T04:13:56;4.60;;;2.50;;
65597;SDS011;52267;51.984;20.956;2023-05-07T04:16:23;4.20;;;2.50;;
65597;SDS011;52267;51.984;20.956;2023-05-07T04:18:50;4.40;;;2.60;;
65597;SDS011;52267;51.984;20.956;2023-05-07T04:21:20;4.80;;;2.70;;
65597;SDS011;52267;51.984;20.956;2023-05-07T04:23:48;4.50;;;2.20;;
65597;SDS011;52267;51.984;20.956;2023-05-07T04:26:15;3.80;;;2.10;;
65597;SDS011;52267;51.984;20.956;2023-05-07T04:28:42;3.80;;;2.60;;
65597;SDS011;52267;51.984;20.956;2023-05-07T04:31:09;3.60;;;2.30;;
65597;SDS011;52267;51.984;20.956;2023-05-07T04:33:36;5.00;;;2.10;;
65597;SDS011;52267;51.984;20.956;2023-05-07T04:36:04;4.50;;;2.50;;
65597;SDS011;52267;51.984;20.956;2023-05-07T04:38:31;3.30;;;2.00;;
65597;SDS011;52267;51.984;20.956;2023-05-07T04:41:06;3.80;;;1.90;;
65597;SDS011;52267;51.984;20.956;2023-05-07T04:43:33;4.20;;;2.20;;
65597;SDS011;52267;51.984;20.956;2023-05-07T04:46:00;4.20;;;2.40;;
65597;SDS011;52267;51.984;20.956;2023-05-07T04:48:27;3.90;;;2.40;;
65597;SDS011;52267;51.984;20.956;2023-05-07T04:50:55;3.20;;;2.20;;
65597;SDS011;52267;51.984;20.956;2023-05-07T04:53:23;3.40;;;1.90;;
65597;SDS011;52267;51.984;20.956;2023-05-07T04:55:55;4.00;;;2.10;;
65597;SDS011;52267;51.984;20.956;2023-05-07T04:58:26;4.40;;;2.10;;
65597;SDS011;52267;51.984;20.956;2023-05-07T05:00:58;5.10;;;2.20;;
65597;SDS011;52267;51.984;20.956;2023-05-07T05:03:26;3.70;;;2.20;;
65597;SDS011;52267;51.984;20.956;2023-05-07T05:05:53;3.10;;;2.10;;
65597;SDS011;52267;51.984;20.956;2023-05-07T05:08:20;5.40;;;2.30;;
65597;SDS011;52267;51.984;20.956;2023-05-07T05:10:47;5.70;;;2.30;;
65597;SDS011;52267;51.984;20.956;2023-05-07T05:13:16;4.30;;;2.40;;
65597;SDS011;52267;51.984;20.956;2023-05-07T05:15:43;5.20;;;2.50;;
65597;SDS011;52267;51.984;20.956;2023-05-07T05:18:10;5.10;;;2.70;;
65597;SDS011;52267;51.984;20.956;2023-05-07T05:20:37;4.50;;;2.60;;
65597;SDS011;52267;51.984;20.956;2023-05-07T05:23:04;4.40;;;2.40;;
65597;SDS011;52267;51.984;20.956;2023-05-07T05:25:32;5.00;;;2.70;;
65597;SDS011;52267;51.984;20.956;2023-05-07T05:27:59;4.00;;;2.30;;
65597;SDS011;52267;51.984;20.956;2023-05-07T05:30:26;4.60;;;2.50;;
65597;SDS011;52267;51.984;20.956;2023-05-07T05:32:53;6.20;;;2.60;;
65597;SDS011;52267;51.984;20.956;2023-05-07T05:35:20;6.30;;;2.20;;
65597;SDS011;52267;51.984;20.956;2023-05-07T05:37:48;5.20;;;2.50;;
65597;SDS011;52267;51.984;20.956;2023-05-07T05:40:15;5.70;;;2.60;;
65597;SDS011;52267;51.984;20.956;2023-05-07T05:42:42;3.20;;;2.00;;
65597;SDS011;52267;51.984;20.956;2023-05-07T05:45:09;3.80;;;2.40;;
65597;SDS011;52267;51.984;20.956;2023-05-07T05:47:37;4.30;;;2.60;;
65597;SDS011;52267;51.984;20.956;2023-05-07T05:50:06;4.00;;;2.20;;
65597;SDS011;52267;51.984;20.956;2023-05-07T05:52:34;3.50;;;2.00;;
65597;SDS011;52267;51.984;20.956;2023-05-07T05:55:01;3.30;;;1.80;;
65597;SDS011;52267;51.984;20.956;2023-05-07T05:57:28;5.40;;;2.60;;
65597;SDS011;52267;51.984;20.956;2023-05-07T05:59:55;3.70;;;2.20;;
65597;SDS011;52267;51.984;20.956;2023-05-07T06:02:22;6.00;;;2.60;;
65597;SDS011;52267;51.984;20.956;2023-05-07T06:04:49;4.00;;;2.20;;
65597;SDS011;52267;51.984;20.956;2023-05-07T06:07:16;3.70;;;2.10;;
65597;SDS011;52267;51.984;20.956;2023-05-07T06:09:43;5.90;;;2.40;;
65597;SDS011;52267;51.984;20.956;2023-05-07T06:12:10;4.90;;;2.50;;
65597;SDS011;52267;51.984;20.956;2023-05-07T06:14:37;3.70;;;2.10;;
65597;SDS011;52267;51.984;20.956;2023-05-07T06:17:04;4.60;;;2.40;;
65597;SDS011;52267;51.984;20.956;2023-05-07T06:19:31;4.60;;;2.40;;
65597;SDS011;52267;51.984;20.956;2023-05-07T06:21:58;3.80;;;2.20;;
65597;SDS011;52267;51.984;20.956;2023-05-07T06:24:28;4.10;;;2.20;;
65597;SDS011;52267;51.984;20.956;2023-05-07T06:26:55;3.50;;;2.10;;
65597;SDS011;52267;51.984;20.956;2023-05-07T06:29:23;3.70;;;2.00;;
65597;SDS011;52267;51.984;20.956;2023-05-07T06:31:55;4.20;;;2.20;;
65597;SDS011;52267;51.984;20.956;2023-05-07T06:34:22;3.30;;;2.10;;
65597;SDS011;52267;51.984;20.956;2023-05-07T06:36:49;5.60;;;2.50;;
65597;SDS011;52267;51.984;20.956;2023-05-07T06:39:16;6.20;;;3.20;;
65597;SDS011;52267;51.984;20.956;2023-05-07T06:41:43;4.30;;;2.60;;
65597;SDS011;52267;51.984;20.956;2023-05-07T06:44:10;3.30;;;2.00;;
65597;SDS011;52267;51.984;20.956;2023-05-07T06:46:37;3.80;;;2.10;;
65597;SDS011;52267;51.984;20.956;2023-05-07T06:49:04;3.40;;;2.10;;
65597;SDS011;52267;51.984;20.956;2023-05-07T06:51:31;3.60;;;2.20;;
65597;SDS011;52267;51.984;20.956;2023-05-07T06:53:58;3.50;;;2.00;;
65597;SDS011;52267;51.984;20.956;2023-05-07T06:56:25;4.80;;;2.40;;
65597;SDS011;52267;51.984;20.956;2023-05-07T06:58:52;4.40;;;1.80;;
65597;SDS011;52267;51.984;20.956;2023-05-07T07:01:19;4.70;;;2.00;;
65597;SDS011;52267;51.984;20.956;2023-05-07T07:03:47;3.80;;;2.20;;
65597;SDS011;52267;51.984;20.956;2023-05-07T07:06:14;4.10;;;1.90;;
65597;SDS011;52267;51.984;20.956;2023-05-07T07:08:41;3.90;;;2.00;;
65597;SDS011;52267;51.984;20.956;2023-05-07T07:11:09;3.90;;;1.90;;
65597;SDS011;52267;51.984;20.956;2023-05-07T07:13:36;3.60;;;1.70;;
65597;SDS011;52267;51.984;20.956;2023-05-07T07:16:04;3.00;;;1.80;;
65597;SDS011;52267;51.984;20.956;2023-05-07T07:18:31;4.50;;;1.80;;
65597;SDS011;52267;51.984;20.956;2023-05-07T07:20:58;3.20;;;2.00;;
65597;SDS011;52267;51.984;20.956;2023-05-07T07:23:25;3.80;;;2.30;;
65597;SDS011;52267;51.984;20.956;2023-05-07T07:25:52;3.80;;;2.10;;
65597;SDS011;52267;51.984;20.956;2023-05-07T07:28:21;2.90;;;1.80;;
65597;SDS011;52267;51.984;20.956;2023-05-07T07:30:48;2.40;;;1.60;;
65597;SDS011;52267;51.984;20.956;2023-05-07T07:33:15;3.90;;;2.00;;
65597;SDS011;52267;51.984;20.956;2023-05-07T07:35:43;5.90;;;1.90;;
65597;SDS011;52267;51.984;20.956;2023-05-07T07:38:10;3.30;;;2.30;;
65597;SDS011;52267;51.984;20.956;2023-05-07T07:40:37;3.60;;;2.00;;
65597;SDS011;52267;51.984;20.956;2023-05-07T07:43:04;3.60;;;2.30;;
65597;SDS011;52267;51.984;20.956;2023-05-07T07:45:32;4.20;;;2.30;;
65597;SDS011;52267;51.984;20.956;2023-05-07T07:47:59;3.60;;;1.90;;
65597;SDS011;52267;51.984;20.956;2023-05-07T07:50:26;2.80;;;1.90;;
65597;SDS011;52267;51.984;20.956;2023-05-07T07:52:53;5.30;;;1.90;;
65597;SDS011;52267;51.984;20.956;2023-05-07T07:55:22;6.20;;;2.20;;
65597;SDS011;52267;51.984;20.956;2023-05-07T07:57:49;3.80;;;2.30;;
65597;SDS011;52267;51.984;20.956;2023-05-07T08:00:17;3.10;;;2.00;;
65597;SDS011;52267;51.984;20.956;2023-05-07T08:02:44;3.50;;;1.90;;
65597;SDS011;52267;51.984;20.956;2023-05-07T08:05:11;4.60;;;2.30;;
65597;SDS011;52267;51.984;20.956;2023-05-07T08:07:38;4.20;;;2.70;;
65597;SDS011;52267;51.984;20.956;2023-05-07T08:10:05;5.70;;;2.40;;
65597;SDS011;52267;51.984;20.956;2023-05-07T08:12:33;4.00;;;2.00;;
65597;SDS011;52267;51.984;20.956;2023-05-07T08:15:00;4.00;;;2.20;;
65597;SDS011;52267;51.984;20.956;2023-05-07T08:17:27;5.60;;;2.10;;
65597;SDS011;52267;51.984;20.956;2023-05-07T08:19:54;3.10;;;1.80;;
65597;SDS011;52267;51.984;20.956;2023-05-07T08:22:21;5.00;;;2.30;;
65597;SDS011;52267;51.984;20.956;2023-05-07T08:24:49;3.90;;;1.90;;
65597;SDS011;52267;51.984;20.956;2023-05-07T08:27:16;3.10;;;2.10;;
65597;SDS011;52267;51.984;20.956;2023-05-07T08:29:43;3.80;;;2.00;;
65597;SDS011;52267;51.984;20.956;2023-05-07T08:32:14;3.80;;;2.00;;
65597;SDS011;52267;51.984;20.956;2023-05-07T08:34:41;3.40;;;2.00;;
65597;SDS011;52267;51.984;20.956;2023-05-07T08:37:08;3.90;;;2.00;;
65597;SDS011;52267;51.984;20.956;2023-05-07T08:39:35;3.40;;;1.90;;
65597;SDS011;52267;51.984;20.956;2023-05-07T08:42:03;4.30;;;2.30;;
65597;SDS011;52267;51.984;20.956;2023-05-07T08:44:34;3.30;;;2.20;;
65597;SDS011;52267;51.984;20.956;2023-05-07T08:47:02;4.90;;;2.10;;
65597;SDS011;52267;51.984;20.956;2023-05-07T08:49:29;3.80;;;2.30;;
65597;SDS011;52267;51.984;20.956;2023-05-07T08:51:56;4.80;;;2.30;;
65597;SDS011;52267;51.984;20.956;2023-05-07T08:54:23;4.10;;;2.10;;
65597;SDS011;52267;51.984;20.956;2023-05-07T08:56:51;3.90;;;2.70;;
65597;SDS011;52267;51.984;20.956;2023-05-07T08:59:18;4.20;;;2.30;;
65597;SDS011;52267;51.984;20.956;2023-05-07T09:01:45;4.30;;;2.70;;
65597;SDS011;52267;51.984;20.956;2023-05-07T09:04:12;4.20;;;2.30;;
65597;SDS011;52267;51.984;20.956;2023-05-07T09:06:39;4.30;;;2.40;;
65597;SDS011;52267;51.984;20.956;2023-05-07T09:09:08;4.50;;;2.50;;
65597;SDS011;52267;51.984;20.956;2023-05-07T09:11:35;4.80;;;3.60;;
65597;SDS011;52267;51.984;20.956;2023-05-07T09:14:02;4.50;;;2.20;;
65597;SDS011;52267;51.984;20.956;2023-05-07T09:16:30;4.70;;;3.00;;
65597;SDS011;52267;51.984;20.956;2023-05-07T09:18:59;5.00;;;2.60;;
65597;SDS011;52267;51.984;20.956;2023-05-07T09:21:29;4.60;;;2.50;;
65597;SDS011;52267;51.984;20.956;2023-05-07T09:23:56;3.80;;;2.30;;
65597;SDS011;52267;51.984;20.956;2023-05-07T09:26:24;3.70;;;2.50;;
65597;SDS011;52267;51.984;20.956;2023-05-07T09:28:52;3.90;;;2.60;;
65597;SDS011;52267;51.984;20.956;2023-05-07T09:31:20;4.80;;;2.40;;
65597;SDS011;52267;51.984;20.956;2023-05-07T09:33:49;4.60;;;2.50;;
65597;SDS011;52267;51.984;20.956;2023-05-07T09:36:17;5.00;;;2.30;;
65597;SDS011;52267;51.984;20.956;2023-05-07T09:38:45;4.50;;;2.80;;
65597;SDS011;52267;51.984;20.956;2023-05-07T09:41:13;3.60;;;2.20;;
65597;SDS011;52267;51.984;20.956;2023-05-07T09:43:40;4.00;;;2.70;;
65597;SDS011;52267;51.984;20.956;2023-05-07T09:46:13;4.40;;;2.60;;
65597;SDS011;52267;51.984;20.956;2023-05-07T09:48:43;5.00;;;2.70;;
65597;SDS011;52267;51.984;20.956;2023-05-07T09:54:17;3.80;;;2.10;;
65597;SDS011;52267;51.984;20.956;2023-05-07T09:56:46;5.60;;;2.40;;
65597;SDS011;52267;51.984;20.956;2023-05-07T09:59:16;5.40;;;2.30;;
65597;SDS011;52267;51.984;20.956;2023-05-07T10:01:44;4.00;;;2.00;;
65597;SDS011;52267;51.984;20.956;2023-05-07T10:04:12;4.80;;;3.00;;
65597;SDS011;52267;51.984;20.956;2023-05-07T10:06:40;5.50;;;2.90;;
65597;SDS011;52267;51.984;20.956;2023-05-07T10:09:08;4.30;;;2.30;;
65597;SDS011;52267;51.984;20.956;2023-05-07T10:11:36;5.20;;;2.40;;
65597;SDS011;52267;51.984;20.956;2023-05-07T10:14:04;5.20;;;2.80;;
65597;SDS011;52267;51.984;20.956;2023-05-07T10:16:35;4.90;;;2.60;;
65597;SDS011;52267;51.984;20.956;2023-05-07T10:19:03;6.10;;;2.30;;
65597;SDS011;52267;51.984;20.956;2023-05-07T10:21:36;3.80;;;2.30;;
65597;SDS011;52267;51.984;20.956;2023-05-07T10:24:19;3.90;;;2.50;;
65597;SDS011;52267;51.984;20.956;2023-05-07T10:26:51;4.80;;;2.70;;
65597;SDS011;52267;51.984;20.956;2023-05-07T10:33:01;3.80;;;2.20;;
65597;SDS011;52267;51.984;20.956;2023-05-07T10:35:17;5.70;;;2.20;;
65597;SDS011;52267;51.984;20.956;2023-05-07T10:37:50;3.70;;;2.20;;
65597;SDS011;52267;51.984;20.956;2023-05-07T10:40:17;6.20;;;2.60;;
65597;SDS011;52267;51.984;20.956;2023-05-07T10:42:54;6.00;;;3.00;;
65597;SDS011;52267;51.984;20.956;2023-05-07T10:45:23;3.50;;;2.50;;
65597;SDS011;52267;51.984;20.956;2023-05-07T10:48:10;6.20;;;2.90;;
65597;SDS011;52267;51.984;20.956;2023-05-07T10:50:43;5.40;;;2.70;;
65597;SDS011;52267;51.984;20.956;2023-05-07T10:55:49;4.40;;;2.20;;
65597;SDS011;52267;51.984;20.956;2023-05-07T11:00:55;4.70;;;2.60;;
65597;SDS011;52267;51.984;20.956;2023-05-07T11:03:29;4.20;;;2.90;;
65597;SDS011;52267;51.984;20.956;2023-05-07T11:06:11;5.60;;;2.80;;
65597;SDS011;52267;51.984;20.956;2023-05-07T11:11:18;4.90;;;2.60;;
65597;SDS011;52267;51.984;20.956;2023-05-07T11:13:49;4.30;;;2.60;;
65597;SDS011;52267;51.984;20.956;2023-05-07T11:16:23;4.60;;;2.50;;
65597;SDS011;52267;51.984;20.956;2023-05-07T11:18:54;3.90;;;2.60;;
65597;SDS011;52267;51.984;20.956;2023-05-07T11:21:42;4.90;;;2.60;;
65597;SDS011;52267;51.984;20.956;2023-05-07T11:24:10;4.70;;;3.00;;
65597;SDS011;52267;51.984;20.956;2023-05-07T11:26:46;6.30;;;3.20;;
65597;SDS011;52267;51.984;20.956;2023-05-07T11:29:19;4.00;;;2.60;;
65597;SDS011;52267;51.984;20.956;2023-05-07T11:31:52;5.90;;;3.30;;
65597;SDS011;52267;51.984;20.956;2023-05-07T11:34:25;5.30;;;3.10;;
65597;SDS011;52267;51.984;20.956;2023-05-07T11:36:53;6.30;;;2.80;;
65597;SDS011;52267;51.984;20.956;2023-05-07T11:39:30;4.60;;;3.00;;
65597;SDS011;52267;51.984;20.956;2023-05-07T11:42:00;6.00;;;2.70;;
65597;SDS011;52267;51.984;20.956;2023-05-07T11:44:44;4.10;;;2.70;;
65597;SDS011;52267;51.984;20.956;2023-05-07T11:47:17;3.90;;;2.50;;
65597;SDS011;52267;51.984;20.956;2023-05-07T11:49:49;3.90;;;2.60;;
65597;SDS011;52267;51.984;20.956;2023-05-07T11:52:19;4.00;;;2.70;;
65597;SDS011;52267;51.984;20.956;2023-05-07T11:57:17;4.90;;;2.30;;
65597;SDS011;52267;51.984;20.956;2023-05-07T11:59:45;6.70;;;3.00;;
65597;SDS011;52267;51.984;20.956;2023-05-07T12:02:14;4.40;;;2.30;;
65597;SDS011;52267;51.984;20.956;2023-05-07T12:04:42;8.30;;;2.70;;
65597;SDS011;52267;51.984;20.956;2023-05-07T12:07:15;5.10;;;3.00;;
65597;SDS011;52267;51.984;20.956;2023-05-07T12:09:44;4.60;;;3.00;;
65597;SDS011;52267;51.984;20.956;2023-05-07T12:12:12;4.40;;;2.80;;
65597;SDS011;52267;51.984;20.956;2023-05-07T12:14:42;5.70;;;2.60;;
65597;SDS011;52267;51.984;20.956;2023-05-07T12:17:11;6.40;;;2.80;;
65597;SDS011;52267;51.984;20.956;2023-05-07T12:19:41;5.50;;;2.80;;
65597;SDS011;52267;51.984;20.956;2023-05-07T12:22:08;5.90;;;2.90;;
65597;SDS011;52267;51.984;20.956;2023-05-07T12:24:50;5.40;;;2.80;;
65597;SDS011;52267;51.984;20.956;2023-05-07T12:27:24;4.90;;;3.30;;
65597;SDS011;52267;51.984;20.956;2023-05-07T12:29:52;3.50;;;2.10;;
65597;SDS011;52267;51.984;20.956;2023-05-07T12:32:20;4.70;;;2.70;;
65597;SDS011;52267;51.984;20.956;2023-05-07T12:34:51;6.10;;;2.90;;
65597;SDS011;52267;51.984;20.956;2023-05-07T12:37:23;5.50;;;3.00;;
65597;SDS011;52267;51.984;20.956;2023-05-07T12:40:10;5.90;;;3.10;;
65597;SDS011;52267;51.984;20.956;2023-05-07T12:42:40;4.20;;;2.40;;
65597;SDS011;52267;51.984;20.956;2023-05-07T12:45:16;4.80;;;3.20;;
65597;SDS011;52267;51.984;20.956;2023-05-07T12:47:44;4.90;;;2.70;;
65597;SDS011;52267;51.984;20.956;2023-05-07T12:50:15;7.10;;;2.80;;
65597;SDS011;52267;51.984;20.956;2023-05-07T12:52:44;5.10;;;3.10;;
65597;SDS011;52267;51.984;20.956;2023-05-07T12:55:14;5.10;;;2.80;;
65597;SDS011;52267;51.984;20.956;2023-05-07T12:57:45;6.40;;;3.30;;
65597;SDS011;52267;51.984;20.956;2023-05-07T13:00:14;5.20;;;2.50;;
65597;SDS011;52267;51.984;20.956;2023-05-07T13:02:43;6.20;;;2.60;;
65597;SDS011;52267;51.984;20.956;2023-05-07T13:05:11;6.20;;;3.00;;
65597;SDS011;52267;51.984;20.956;2023-05-07T13:07:38;4.90;;;2.40;;
65597;SDS011;52267;51.984;20.956;2023-05-07T13:10:06;5.00;;;2.30;;
65597;SDS011;52267;51.984;20.956;2023-05-07T13:12:33;4.80;;;3.40;;
65597;SDS011;52267;51.984;20.956;2023-05-07T13:15:00;5.10;;;2.40;;
65597;SDS011;52267;51.984;20.956;2023-05-07T13:17:27;4.80;;;2.40;;
65597;SDS011;52267;51.984;20.956;2023-05-07T13:19:54;3.60;;;2.20;;
65597;SDS011;52267;51.984;20.956;2023-05-07T13:22:21;4.10;;;2.50;;
65597;SDS011;52267;51.984;20.956;2023-05-07T13:24:48;3.90;;;2.60;;
65597;SDS011;52267;51.984;20.956;2023-05-07T13:27:15;5.30;;;2.80;;
65597;SDS011;52267;51.984;20.956;2023-05-07T13:29:42;4.90;;;2.80;;
65597;SDS011;52267;51.984;20.956;2023-05-07T13:32:09;4.70;;;2.70;;
65597;SDS011;52267;51.984;20.956;2023-05-07T13:34:36;5.40;;;2.50;;
65597;SDS011;52267;51.984;20.956;2023-05-07T13:37:03;5.90;;;2.50;;
65597;SDS011;52267;51.984;20.956;2023-05-07T13:39:30;3.70;;;2.30;;
65597;SDS011;52267;51.984;20.956;2023-05-07T13:41:58;5.50;;;2.30;;
65597;SDS011;52267;51.984;20.956;2023-05-07T13:44:25;3.10;;;2.00;;
65597;SDS011;52267;51.984;20.956;2023-05-07T13:46:52;3.60;;;2.30;;
65597;SDS011;52267;51.984;20.956;2023-05-07T13:49:20;4.50;;;2.60;;
65597;SDS011;52267;51.984;20.956;2023-05-07T13:51:47;3.10;;;1.80;;
65597;SDS011;52267;51.984;20.956;2023-05-07T13:54:14;4.90;;;2.70;;
65597;SDS011;52267;51.984;20.956;2023-05-07T13:56:41;5.10;;;2.40;;
65597;SDS011;52267;51.984;20.956;2023-05-07T13:59:08;4.80;;;2.50;;
65597;SDS011;52267;51.984;20.956;2023-05-07T14:01:35;3.80;;;2.40;;
65597;SDS011;52267;51.984;20.956;2023-05-07T14:04:02;4.10;;;2.30;;
65597;SDS011;52267;51.984;20.956;2023-05-07T14:06:29;4.10;;;2.40;;
65597;SDS011;52267;51.984;20.956;2023-05-07T14:08:56;5.80;;;2.70;;
65597;SDS011;52267;51.984;20.956;2023-05-07T14:11:24;3.30;;;2.10;;
65597;SDS011;52267;51.984;20.956;2023-05-07T14:13:51;4.30;;;2.00;;
65597;SDS011;52267;51.984;20.956;2023-05-07T14:16:21;6.20;;;2.30;;
65597;SDS011;52267;51.984;20.956;2023-05-07T14:18:48;5.00;;;2.30;;
65597;SDS011;52267;51.984;20.956;2023-05-07T14:21:15;4.60;;;2.70;;
65597;SDS011;52267;51.984;20.956;2023-05-07T14:23:42;3.70;;;2.40;;
65597;SDS011;52267;51.984;20.956;2023-05-07T14:26:09;4.60;;;2.20;;
65597;SDS011;52267;51.984;20.956;2023-05-07T14:28:36;3.80;;;2.30;;
65597;SDS011;52267;51.984;20.956;2023-05-07T14:31:05;5.80;;;2.30;;
65597;SDS011;52267;51.984;20.956;2023-05-07T14:33:33;3.60;;;2.10;;
65597;SDS011;52267;51.984;20.956;2023-05-07T14:36:00;4.20;;;2.20;;
65597;SDS011;52267;51.984;20.956;2023-05-07T14:38:27;4.80;;;1.90;;
65597;SDS011;52267;51.984;20.956;2023-05-07T14:40:54;4.00;;;2.20;;
65597;SDS011;52267;51.984;20.956;2023-05-07T14:43:22;5.10;;;2.50;;
65597;SDS011;52267;51.984;20.956;2023-05-07T14:45:49;4.00;;;2.50;;
65597;SDS011;52267;51.984;20.956;2023-05-07T14:48:16;4.00;;;2.40;;
65597;SDS011;52267;51.984;20.956;2023-05-07T14:50:46;4.60;;;2.10;;
65597;SDS011;52267;51.984;20.956;2023-05-07T14:53:15;5.50;;;2.80;;
65597;SDS011;52267;51.984;20.956;2023-05-07T14:55:42;4.90;;;2.50;;